Time;durP1;ratioP1;P1;durP2;ratioP2;P2;SDS_P1;SDS_P2;PMS_P1;PMS_P2;Temp;Humidity;BMP_temperature;BMP_pressure;BME280_temperature;BME280_humidity;BME280_pressure;Samples;Min_cycle;Max_cycle;Signal;HPM_P1;HPM_P2
2023/04/28 00:01:14;;;;;;;4.72;2.30;;;21.10;66.40;;;;;;4168836;28;20472;-55
2023/04/28 00:03:36;;;;;;;4.97;2.33;;;21.10;66.40;;;;;;4158652;28;20030;-47
2023/04/28 00:05:59;;;;;;;4.00;1.95;;;21.10;66.30;;;;;;4174894;28;20036;-55
2023/04/28 00:08:24;;;;;;;6.97;2.13;;;21.10;66.40;;;;;;4174657;28;20033;-52
2023/04/28 00:10:47;;;;;;;3.70;1.88;;;21.00;66.40;;;;;;4167426;28;20427;-50
2023/04/28 00:13:10;;;;;;;4.68;2.10;;;21.10;66.40;;;;;;4175745;28;20056;-53
2023/04/28 00:15:32;;;;;;;4.57;1.90;;;21.10;66.40;;;;;;4168959;28;20543;-54
2023/04/28 00:17:55;;;;;;;3.20;1.75;;;21.10;66.40;;;;;;4173985;28;20040;-54
2023/04/28 00:20:17;;;;;;;3.25;1.70;;;21.10;66.40;;;;;;4170361;28;20037;-50
2023/04/28 00:22:40;;;;;;;2.20;1.42;;;21.10;66.40;;;;;;4171532;28;20485;-50
2023/04/28 00:25:03;;;;;;;2.95;1.70;;;21.10;66.40;;;;;;4171987;28;20041;-52
2023/04/28 00:27:25;;;;;;;3.72;1.90;;;21.10;66.40;;;;;;4173282;28;20091;-53
2023/04/28 00:29:48;;;;;;;3.80;1.48;;;21.10;66.30;;;;;;4174858;28;20083;-52
2023/04/28 00:32:12;;;;;;;2.33;1.58;;;21.10;66.30;;;;;;4174944;28;20126;-50
2023/04/28 00:34:36;;;;;;;;;;;21.10;66.40;;;;;;4172751;28;20641;-54
2023/04/28 00:36:58;;;;;;;2.53;1.53;;;21.10;66.40;;;;;;4167974;28;20431;-50
2023/04/28 00:39:22;;;;;;;3.22;1.90;;;21.10;66.40;;;;;;4172926;28;20119;-51
2023/04/28 00:41:44;;;;;;;1.75;1.30;;;21.10;66.40;;;;;;4175800;28;20091;-50
2023/04/28 00:44:06;;;;;;;2.55;1.30;;;21.10;66.40;;;;;;4173309;28;20073;-52
2023/04/28 00:46:33;;;;;;;2.10;1.27;;;21.20;66.40;;;;;;4170041;28;20406;-52
2023/04/28 00:48:56;;;;;;;2.67;1.20;;;21.20;66.40;;;;;;4172591;28;20095;-53
2023/04/28 00:51:20;;;;;;;2.53;1.67;;;21.20;66.40;;;;;;4172904;28;20033;-52
2023/04/28 00:53:43;;;;;;;2.73;1.70;;;21.10;66.40;;;;;;4171982;28;20138;-56
2023/04/28 00:56:06;;;;;;;2.55;1.50;;;21.20;66.40;;;;;;4163865;28;20377;-52
2023/04/28 00:58:29;;;;;;;1.92;1.33;;;21.20;66.30;;;;;;4167573;28;20043;-52
2023/04/28 01:00:52;;;;;;;1.92;1.15;;;21.20;66.30;;;;;;4168520;28;20036;-53
2023/04/28 01:03:14;;;;;;;1.77;1.33;;;21.20;66.30;;;;;;4173831;28;20075;-51
2023/04/28 01:05:37;;;;;;;2.42;1.30;;;21.30;66.30;;;;;;4158912;28;20177;-54
2023/04/28 01:08:00;;;;;;;2.83;1.20;;;21.30;66.30;;;;;;4172173;28;20104;-53
2023/04/28 01:10:22;;;;;;;3.10;1.75;;;21.30;66.30;;;;;;4175204;28;20037;-54
2023/04/28 01:12:45;;;;;;;1.90;1.20;;;21.30;66.30;;;;;;4174955;28;20119;-52
2023/04/28 01:15:26;;;;;;;1.80;0.95;;;21.30;66.30;;;;;;4174170;28;20094;-53
2023/04/28 01:17:49;;;;;;;1.73;1.05;;;21.30;66.90;;;;;;4167116;28;20124;-54
2023/04/28 01:20:12;;;;;;;1.85;1.10;;;21.30;66.40;;;;;;4171292;28;20457;-55
2023/04/28 01:22:35;;;;;;;1.40;0.90;;;21.40;66.50;;;;;;4165245;28;20091;-53
2023/04/28 01:24:59;;;;;;;1.33;1.10;;;21.40;67.10;;;;;;4172866;28;20045;-54
2023/04/28 01:27:22;;;;;;;;;;;21.40;66.50;;;;;;4157365;28;20391;-52
2023/04/28 01:29:44;;;;;;;1.67;1.10;;;21.40;66.50;;;;;;4175972;28;19909;-50
2023/04/28 01:32:07;;;;;;;2.17;1.33;;;21.40;66.40;;;;;;4170220;28;20037;-55
2023/04/28 01:34:29;;;;;;;2.03;1.20;;;21.40;66.40;;;;;;4175113;28;20048;-55
2023/04/28 01:36:52;;;;;;;1.35;1.20;;;21.50;66.50;;;;;;4159215;28;20608;-54
2023/04/28 01:39:14;;;;;;;1.05;0.93;;;21.50;66.50;;;;;;4174169;28;20111;-55
2023/04/28 01:41:36;;;;;;;1.58;1.17;;;21.50;66.50;;;;;;4173802;28;20513;-53
2023/04/28 01:43:59;;;;;;;2.00;1.13;;;21.50;66.60;;;;;;4174468;28;20033;-50
2023/04/28 01:46:22;;;;;;;1.45;1.13;;;21.50;66.60;;;;;;4162618;28;20030;-53
2023/04/28 01:48:44;;;;;;;1.65;1.15;;;21.60;66.70;;;;;;4172717;28;20043;-57
2023/04/28 01:51:06;;;;;;;1.42;1.33;;;21.60;66.70;;;;;;4151079;28;20032;-50
2023/04/28 01:53:29;;;;;;;1.67;1.13;;;21.60;67.30;;;;;;4162771;28;20088;-53
2023/04/28 01:55:52;;;;;;;1.85;0.90;;;21.60;66.70;;;;;;4157961;28;20476;-55
2023/04/28 01:58:14;;;;;;;1.53;1.00;;;21.60;66.80;;;;;;4168403;28;20029;-45
2023/04/28 02:00:37;;;;;;;2.63;1.30;;;21.60;66.70;;;;;;4172401;28;20814;-55
2023/04/28 02:02:59;;;;;;;2.15;1.00;;;21.60;66.80;;;;;;4174217;28;20033;-54
2023/04/28 02:05:21;;;;;;;2.25;1.17;;;21.70;66.80;;;;;;4168618;28;20036;-52
2023/04/28 02:07:44;;;;;;;1.73;1.15;;;21.70;66.90;;;;;;4177959;28;20055;-55
2023/04/28 02:10:07;;;;;;;1.92;1.15;;;21.70;66.80;;;;;;4167835;28;20670;-55
2023/04/28 02:12:30;;;;;;;1.20;1.10;;;21.70;66.80;;;;;;4178668;28;20033;-54
2023/04/28 02:14:52;;;;;;;1.20;1.08;;;21.80;66.90;;;;;;4176829;28;20037;-56
2023/04/28 02:17:15;;;;;;;1.17;1.00;;;21.80;66.90;;;;;;4175855;28;20527;-54
2023/04/28 02:19:37;;;;;;;2.03;1.10;;;21.80;66.90;;;;;;4165303;28;20045;-57
2023/04/28 02:22:00;;;;;;;1.85;1.10;;;21.80;66.80;;;;;;4176195;28;20090;-56
2023/04/28 02:24:22;;;;;;;1.35;1.00;;;21.90;66.80;;;;;;4177610;28;20784;-57
2023/04/28 02:26:44;;;;;;;2.20;1.08;;;21.90;66.80;;;;;;4176476;28;20311;-56
2023/04/28 02:29:07;;;;;;;1.73;1.00;;;21.90;66.80;;;;;;4162638;28;20041;-56
2023/04/28 02:31:30;;;;;;;1.42;1.02;;;21.90;66.80;;;;;;4169400;28;20132;-54
2023/04/28 02:33:53;;;;;;;1.07;0.90;;;22.00;67.20;;;;;;4176826;28;20044;-58
2023/04/28 02:36:15;;;;;;;2.72;1.38;;;22.00;66.80;;;;;;4176855;28;20102;-57
2023/04/28 02:38:40;;;;;;;1.25;1.10;;;22.00;66.80;;;;;;4176060;28;20043;-58
2023/04/28 02:41:08;;;;;;;2.35;1.13;;;22.00;66.70;;;;;;4175717;28;20526;-56
2023/04/28 02:43:31;;;;;;;1.95;1.13;;;22.00;66.70;;;;;;4164664;28;20042;-58
2023/04/28 02:45:54;;;;;;;1.38;1.10;;;22.10;66.70;;;;;;4169483;28;20076;-58
2023/04/28 02:48:16;;;;;;;1.58;1.02;;;22.10;66.70;;;;;;4164434;28;20068;-57
2023/04/28 02:50:39;;;;;;;1.70;1.20;;;22.10;66.60;;;;;;4169539;28;20037;-55
2023/04/28 02:53:01;;;;;;;1.30;0.90;;;22.20;66.60;;;;;;4172504;28;20120;-54
2023/04/28 02:55:24;;;;;;;1.15;0.93;;;22.20;66.50;;;;;;4169428;28;20033;-56
2023/04/28 02:57:46;;;;;;;1.38;1.00;;;22.20;66.30;;;;;;4170394;28;20522;-53
2023/04/28 03:00:10;;;;;;;1.98;0.90;;;22.20;66.30;;;;;;4170622;28;20497;-54
2023/04/28 03:02:32;;;;;;;1.83;1.10;;;22.20;66.20;;;;;;4154601;28;20041;-58
2023/04/28 03:04:54;;;;;;;1.98;1.25;;;22.30;66.20;;;;;;4169824;28;20037;-55
2023/04/28 03:07:17;;;;;;;1.75;1.10;;;22.30;66.20;;;;;;4166285;28;20045;-52
2023/04/28 03:09:40;;;;;;;1.58;1.20;;;22.30;66.10;;;;;;4161232;28;20041;-52
2023/04/28 03:12:02;;;;;;;2.38;1.17;;;22.40;66.20;;;;;;4167821;28;20404;-56
2023/04/28 03:14:24;;;;;;;3.58;1.63;;;22.40;66.20;;;;;;4171779;28;21541;-56
2023/04/28 03:16:47;;;;;;;3.30;1.70;;;22.50;66.20;;;;;;4169544;28;20136;-56
2023/04/28 03:19:09;;;;;;;4.30;2.03;;;22.50;66.20;;;;;;4172304;28;20049;-55
2023/04/28 03:21:32;;;;;;;4.43;2.20;;;22.60;66.20;;;;;;4167548;28;20041;-57
2023/04/28 03:23:54;;;;;;;5.35;2.33;;;22.60;66.20;;;;;;4165196;28;20523;-55
2023/04/28 03:26:17;;;;;;;3.25;2.38;;;22.70;66.20;;;;;;4174592;28;20075;-55
2023/04/28 03:28:39;;;;;;;4.20;2.60;;;22.70;66.10;;;;;;4175634;28;20049;-56
2023/04/28 03:31:02;;;;;;;5.47;2.85;;;22.80;66.00;;;;;;4174577;28;20444;-54
2023/04/28 03:33:24;;;;;;;3.83;2.55;;;22.80;66.00;;;;;;4167699;28;20076;-58
2023/04/28 03:35:47;;;;;;;3.85;2.45;;;22.90;66.00;;;;;;4174409;28;20493;-55
2023/04/28 03:38:09;;;;;;;3.85;2.22;;;22.80;65.80;;;;;;4173896;28;20033;-56
2023/04/28 03:40:31;;;;;;;3.72;2.20;;;22.90;65.70;;;;;;4174195;28;20052;-53
2023/04/28 03:42:54;;;;;;;3.38;2.20;;;23.00;65.50;;;;;;4170176;28;20091;-56
2023/04/28 03:45:16;;;;;;;2.95;2.10;;;23.00;65.20;;;;;;4158260;28;20041;-54
2023/04/28 03:47:39;;;;;;;3.53;2.28;;;23.10;65.10;;;;;;4170854;28;20397;-56
2023/04/28 03:50:01;;;;;;;6.43;2.05;;;23.20;64.90;;;;;;4168119;28;20327;-54
2023/04/28 03:52:25;;;;;;;2.40;1.65;;;23.30;64.90;;;;;;4156823;28;20037;-51
2023/04/28 03:54:47;;;;;;;2.97;1.92;;;23.30;64.70;;;;;;4172162;28;20393;-54
2023/04/28 03:57:10;;;;;;;3.15;1.70;;;23.40;64.60;;;;;;4162003;28;20048;-57
2023/04/28 03:59:32;;;;;;;3.17;1.60;;;23.40;64.50;;;;;;4173252;28;20037;-58
2023/04/28 04:01:54;;;;;;;2.78;1.60;;;23.50;64.20;;;;;;4173450;28;20053;-52
2023/04/28 04:04:17;;;;;;;2.20;1.50;;;23.60;63.90;;;;;;4173818;28;20130;-56
2023/04/28 04:06:39;;;;;;;2.30;1.40;;;23.60;63.60;;;;;;4170275;28;20120;-55
2023/04/28 04:09:02;;;;;;;1.40;1.10;;;23.70;63.40;;;;;;4175202;28;20037;-58
2023/04/28 04:11:24;;;;;;;2.72;1.40;;;23.80;63.00;;;;;;4173893;28;20033;-56
2023/04/28 04:13:47;;;;;;;2.20;1.20;;;23.90;63.30;;;;;;4172664;28;20124;-55
2023/04/28 04:16:09;;;;;;;2.00;1.13;;;24.00;62.40;;;;;;4151403;28;20049;-55
2023/04/28 04:18:32;;;;;;;3.45;1.30;;;24.00;62.20;;;;;;4160072;28;20137;-57
2023/04/28 04:20:56;;;;;;;1.35;1.00;;;24.00;61.80;;;;;;4175083;28;20091;-56
2023/04/28 04:23:18;;;;;;;1.77;0.85;;;24.10;61.40;;;;;;4175062;28;20044;-56
2023/04/28 04:25:40;;;;;;;1.92;1.27;;;24.20;62.20;;;;;;4165761;28;20427;-55
2023/04/28 04:28:03;;;;;;;1.48;1.10;;;24.30;61.10;;;;;;4175117;28;20041;-52
2023/04/28 04:30:25;;;;;;;2.00;0.98;;;24.40;61.10;;;;;;4164128;28;21266;-56
2023/04/28 04:32:48;;;;;;;2.00;1.05;;;24.40;60.90;;;;;;4167159;28;20432;-54
2023/04/28 04:35:10;;;;;;;1.88;1.20;;;24.50;60.80;;;;;;4162456;28;20080;-57
2023/04/28 04:37:33;;;;;;;2.20;1.10;;;24.60;60.60;;;;;;4170496;28;20420;-57
2023/04/28 04:39:55;;;;;;;2.10;0.90;;;24.60;60.30;;;;;;4165885;28;20037;-54
2023/04/28 04:42:18;;;;;;;2.65;1.10;;;24.70;60.30;;;;;;4172072;28;20521;-56
2023/04/28 04:44:40;;;;;;;2.13;1.00;;;24.80;60.00;;;;;;4151929;28;20037;-56
2023/04/28 04:47:03;;;;;;;1.60;1.00;;;24.90;60.20;;;;;;4170847;28;20151;-56
2023/04/28 04:49:25;;;;;;;1.75;1.17;;;25.00;60.00;;;;;;4172658;28;20405;-58
2023/04/28 04:51:47;;;;;;;1.30;0.90;;;25.00;59.90;;;;;;4173731;28;20044;-56
2023/04/28 04:54:10;;;;;;;1.58;1.08;;;25.10;59.70;;;;;;4170912;28;20045;-57
2023/04/28 04:56:32;;;;;;;1.75;1.05;;;25.20;59.50;;;;;;4154865;28;20080;-57
2023/04/28 04:58:55;;;;;;;0.88;0.70;;;25.20;59.50;;;;;;4164000;28;20041;-57
2023/04/28 05:01:17;;;;;;;1.45;0.90;;;25.30;59.50;;;;;;4169947;28;20075;-56
2023/04/28 05:03:40;;;;;;;1.65;1.05;;;25.40;59.70;;;;;;4169347;28;20398;-57
2023/04/28 05:06:03;;;;;;;1.25;0.85;;;25.40;59.40;;;;;;4168862;28;20041;-57
2023/04/28 05:08:25;;;;;;;1.00;0.80;;;25.50;59.60;;;;;;4164958;28;20033;-59
2023/04/28 05:10:48;;;;;;;1.65;0.88;;;25.60;59.60;;;;;;4165654;28;20136;-57
2023/04/28 05:13:10;;;;;;;1.40;0.90;;;25.70;59.60;;;;;;4172550;28;20389;-55
2023/04/28 05:15:32;;;;;;;1.20;0.80;;;25.80;59.50;;;;;;4166536;28;20103;-55
2023/04/28 05:17:55;;;;;;;0.70;0.70;;;25.80;59.40;;;;;;4172558;28;20452;-56
2023/04/28 05:20:18;;;;;;;1.43;0.83;;;25.80;59.30;;;;;;4167067;28;20068;-54
2023/04/28 05:22:40;;;;;;;1.05;0.70;;;25.90;59.30;;;;;;4171716;28;20282;-56
2023/04/28 05:25:03;;;;;;;1.38;0.75;;;25.90;59.30;;;;;;4173895;28;20048;-56
2023/04/28 05:27:25;;;;;;;0.70;0.45;;;25.90;59.30;;;;;;4166358;28;20037;-57
2023/04/28 05:29:48;;;;;;;0.95;0.70;;;25.90;59.20;;;;;;4172668;28;20048;-58
2023/04/28 05:32:10;;;;;;;1.15;0.60;;;26.00;59.20;;;;;;4165775;28;20573;-55
2023/04/28 05:34:33;;;;;;;0.82;0.65;;;26.00;59.10;;;;;;4166342;28;20041;-55
2023/04/28 05:36:56;;;;;;;1.05;0.80;;;26.00;59.10;;;;;;4173792;28;20041;-55
2023/04/28 05:39:18;;;;;;;1.27;0.60;;;26.00;59.10;;;;;;4173950;28;20515;-57
2023/04/28 05:41:40;;;;;;;1.00;0.70;;;26.00;59.00;;;;;;4177261;28;20029;-58
2023/04/28 05:44:03;;;;;;;1.63;0.63;;;26.00;59.10;;;;;;4170319;28;20428;-48
2023/04/28 05:46:25;;;;;;;0.82;0.80;;;26.00;59.20;;;;;;4174250;28;20548;-55
2023/04/28 05:48:48;;;;;;;0.77;0.60;;;25.90;59.30;;;;;;4176124;28;20044;-57
2023/04/28 05:51:10;;;;;;;0.80;0.60;;;25.90;59.40;;;;;;4177177;28;20042;-55
2023/04/28 05:53:33;;;;;;;1.08;0.55;;;25.90;59.50;;;;;;4158471;28;20041;-55
2023/04/28 05:55:55;;;;;;;0.90;0.70;;;25.80;59.50;;;;;;4172364;28;20061;-55
2023/04/28 05:58:17;;;;;;;1.13;0.70;;;25.80;59.70;;;;;;4173504;28;20033;-55
2023/04/28 06:00:40;;;;;;;0.85;0.73;;;25.80;59.60;;;;;;4160027;28;20033;-58
2023/04/28 06:03:02;;;;;;;1.75;0.85;;;25.80;59.70;;;;;;4173647;28;20025;-52
2023/04/28 06:05:26;;;;;;;0.50;0.50;;;25.80;59.70;;;;;;4174708;28;20055;-57
2023/04/28 06:07:48;;;;;;;1.13;0.90;;;25.80;59.70;;;;;;4171723;28;20060;-56
2023/04/28 06:10:11;;;;;;;1.60;0.60;;;25.80;59.60;;;;;;4167523;28;20047;-56
2023/04/28 06:12:33;;;;;;;1.38;0.93;;;25.80;59.70;;;;;;4173525;28;20033;-57
2023/04/28 06:14:56;;;;;;;0.65;0.65;;;25.80;59.60;;;;;;4169509;28;20048;-53
2023/04/28 06:17:19;;;;;;;1.50;0.80;;;25.80;59.70;;;;;;4171581;28;20053;-53
2023/04/28 06:19:41;;;;;;;0.63;0.50;;;25.80;59.80;;;;;;4176666;28;20087;-53
2023/04/28 06:22:04;;;;;;;0.70;0.70;;;25.80;59.90;;;;;;4172446;28;20416;-55
2023/04/28 06:24:26;;;;;;;0.57;0.57;;;25.70;59.70;;;;;;4172466;28;20037;-56
2023/04/28 06:26:49;;;;;;;1.00;0.70;;;25.70;59.80;;;;;;4173666;28;20536;-56
2023/04/28 06:29:11;;;;;;;0.63;0.63;;;25.70;59.80;;;;;;4171323;28;20416;-54
2023/04/28 06:31:33;;;;;;;0.68;0.60;;;25.70;59.80;;;;;;4173535;28;20049;-51
2023/04/28 06:33:56;;;;;;;0.98;0.60;;;25.70;59.80;;;;;;4158100;28;20041;-56
2023/04/28 06:36:18;;;;;;;1.50;0.80;;;25.70;59.80;;;;;;4173123;28;20049;-53
2023/04/28 06:38:42;;;;;;;0.60;0.50;;;25.70;59.90;;;;;;4171033;28;20294;-52
2023/04/28 06:41:05;;;;;;;1.23;0.70;;;25.70;59.90;;;;;;4172961;28;20047;-54
2023/04/28 06:43:27;;;;;;;0.68;0.60;;;25.70;59.90;;;;;;4171271;28;20041;-53
2023/04/28 06:45:50;;;;;;;1.05;0.70;;;25.70;59.90;;;;;;4172920;28;20033;-52
2023/04/28 06:48:12;;;;;;;1.35;0.70;;;25.70;60.00;;;;;;4170599;28;20040;-56
2023/04/28 06:50:36;;;;;;;0.75;0.60;;;25.70;60.00;;;;;;4162182;28;20045;-58
2023/04/28 06:52:58;;;;;;;0.73;0.60;;;25.70;60.10;;;;;;4157247;28;20056;-54
2023/04/28 06:55:21;;;;;;;1.13;0.70;;;25.60;60.00;;;;;;4169080;28;20451;-51
2023/04/28 06:57:43;;;;;;;1.02;0.55;;;25.60;60.10;;;;;;4173195;28;20060;-53
2023/04/28 07:00:08;;;;;;;1.10;0.65;;;25.60;60.10;;;;;;4172422;28;20542;-50
2023/04/28 07:02:30;;;;;;;1.05;0.63;;;25.60;60.20;;;;;;4157413;28;20037;-58
2023/04/28 07:04:53;;;;;;;1.35;0.80;;;25.60;60.30;;;;;;4167260;28;20030;-50
2023/04/28 07:07:15;;;;;;;0.65;0.57;;;25.50;60.40;;;;;;4179983;28;20084;-49
2023/04/28 07:09:37;;;;;;;0.75;0.70;;;25.60;60.50;;;;;;4159766;28;20045;-55
2023/04/28 07:12:00;;;;;;;0.85;0.73;;;25.50;60.50;;;;;;4173555;28;20086;-56
2023/04/28 07:14:22;;;;;;;1.20;0.60;;;25.50;60.60;;;;;;4166175;28;20098;-53
2023/04/28 07:16:45;;;;;;;1.02;0.85;;;25.50;60.70;;;;;;4169542;28;20053;-55
2023/04/28 07:19:07;;;;;;;1.52;0.65;;;25.50;60.90;;;;;;4175090;28;20704;-56
2023/04/28 07:21:30;;;;;;;1.45;0.80;;;25.40;60.80;;;;;;4167523;28;20072;-56
2023/04/28 07:23:55;;;;;;;1.02;0.63;;;25.40;60.90;;;;;;4174546;28;20174;-53
2023/04/28 07:26:18;;;;;;;0.77;0.70;;;25.40;61.00;;;;;;4166846;28;20040;-51
2023/04/28 07:28:40;;;;;;;4.00;1.70;;;25.40;61.30;;;;;;4168889;28;20531;-52
2023/04/28 07:31:02;;;;;;;4.20;2.10;;;25.40;61.20;;;;;;4173931;28;20068;-50
2023/04/28 07:33:25;;;;;;;6.72;2.28;;;25.40;61.20;;;;;;4173644;28;20405;-54
2023/04/28 07:35:48;;;;;;;4.45;2.30;;;25.40;61.40;;;;;;4173141;28;20044;-49
2023/04/28 07:38:10;;;;;;;5.20;3.28;;;25.40;61.60;;;;;;4171129;28;20041;-52
2023/04/28 07:40:33;;;;;;;7.50;3.67;;;25.40;61.60;;;;;;4174847;28;20440;-54
2023/04/28 07:42:56;;;;;;;8.90;5.32;;;25.30;61.70;;;;;;4175767;28;20368;-54
2023/04/28 07:45:18;;;;;;;7.55;5.35;;;25.30;61.90;;;;;;4168401;28;20059;-55
2023/04/28 07:47:41;;;;;;;12.00;7.15;;;25.40;62.10;;;;;;4172491;28;20044;-52
2023/04/28 07:50:05;;;;;;;12.18;7.82;;;25.30;62.20;;;;;;4171817;28;20403;-53
2023/04/28 07:52:27;;;;;;;13.15;7.88;;;25.30;62.30;;;;;;4167376;28;20034;-51
2023/04/28 07:54:50;;;;;;;16.60;9.23;;;25.40;62.60;;;;;;4155896;28;20117;-54
2023/04/28 07:57:15;;;;;;;12.88;8.27;;;25.30;62.80;;;;;;4165071;28;20473;-52
2023/04/28 07:59:37;;;;;;;13.75;9.23;;;25.30;62.80;;;;;;4172933;28;20485;-50
2023/04/28 08:01:59;;;;;;;11.73;8.02;;;25.30;62.90;;;;;;4168197;28;20128;-48
2023/04/28 08:04:22;;;;;;;13.88;7.70;;;25.30;62.90;;;;;;4153670;28;20112;-53
2023/04/28 08:06:44;;;;;;;10.18;6.43;;;25.30;62.90;;;;;;4170127;28;20040;-49
2023/04/28 08:09:07;;;;;;;11.77;6.68;;;25.30;62.80;;;;;;4168512;28;20593;-49
2023/04/28 08:11:29;;;;;;;9.98;6.10;;;25.30;63.10;;;;;;4167715;28;20040;-53
2023/04/28 08:13:51;;;;;;;10.05;5.50;;;25.20;62.90;;;;;;4171504;28;20186;-54
2023/04/28 08:16:14;;;;;;;8.50;4.88;;;25.20;63.00;;;;;;4169428;28;20053;-52
2023/04/28 08:18:38;;;;;;;8.60;5.20;;;25.20;63.00;;;;;;4165247;28;20504;-47
2023/04/28 08:21:01;;;;;;;8.55;4.75;;;25.20;63.00;;;;;;4168033;28;20476;-55
2023/04/28 08:23:27;;;;;;;9.43;5.07;;;25.20;63.00;;;;;;4165582;28;20036;-52
2023/04/28 08:25:50;;;;;;;7.40;4.05;;;25.20;63.00;;;;;;4166433;28;20041;-52
2023/04/28 08:28:12;;;;;;;6.13;4.10;;;25.20;63.10;;;;;;4163529;28;20037;-54
2023/04/28 08:30:37;;;;;;;7.82;3.92;;;25.10;63.10;;;;;;4172912;28;20431;-51
2023/04/28 08:33:00;;;;;;;7.57;4.03;;;25.20;63.20;;;;;;4163331;28;20033;-51
2023/04/28 08:35:22;;;;;;;6.13;3.90;;;25.20;63.20;;;;;;4163337;28;20068;-56
2023/04/28 08:37:45;;;;;;;5.05;3.35;;;25.10;63.20;;;;;;4159823;28;21087;-55
2023/04/28 08:40:11;;;;;;;6.05;3.53;;;25.20;63.40;;;;;;4165127;28;20044;-53
2023/04/28 08:42:34;;;;;;;4.82;2.67;;;25.10;63.50;;;;;;4162150;28;20203;-50
2023/04/28 08:44:58;;;;;;;5.63;3.00;;;25.10;63.60;;;;;;4165622;28;20041;-54
2023/04/28 08:47:22;;;;;;;5.68;3.03;;;25.10;63.70;;;;;;4162834;28;20124;-52
2023/04/28 08:49:46;;;;;;;5.32;3.10;;;25.10;63.70;;;;;;4157748;28;20128;-53
2023/04/28 08:52:16;;;;;;;6.18;3.00;;;25.10;63.80;;;;;;4164774;28;20037;-48
2023/04/28 08:54:40;;;;;;;5.95;2.78;;;25.10;63.80;;;;;;4160720;28;20045;-53
2023/04/28 08:57:03;;;;;;;4.18;2.55;;;25.10;63.80;;;;;;4161742;28;20048;-50
2023/04/28 08:59:25;;;;;;;3.65;2.40;;;25.10;63.90;;;;;;4163288;28;20098;-51
2023/04/28 09:01:51;;;;;;;5.60;2.72;;;25.10;63.90;;;;;;4164866;28;20102;-54
2023/04/28 09:04:16;;;;;;;4.05;2.42;;;25.10;64.00;;;;;;4164486;28;20041;-52
2023/04/28 09:06:38;;;;;;;3.92;2.40;;;25.10;64.00;;;;;;4162820;28;20429;-55
2023/04/28 09:09:29;;;;;;;5.38;2.75;;;25.10;64.10;;;;;;4162424;28;20118;-52
2023/04/28 09:12:00;;;;;;;4.50;2.22;;;25.10;64.20;;;;;;4153102;28;20048;-49
2023/04/28 09:14:26;;;;;;;4.07;2.47;;;25.10;64.20;;;;;;4165999;28;20875;-55
2023/04/28 09:16:50;;;;;;;5.07;2.38;;;25.00;64.20;;;;;;4165720;28;20053;-51
2023/04/28 09:19:13;;;;;;;4.00;2.10;;;25.10;64.30;;;;;;4161727;28;20029;-50
2023/04/28 09:21:51;;;;;;;5.33;2.20;;;25.00;64.40;;;;;;4164519;28;20378;-52
2023/04/28 09:24:26;;;;;;;4.30;2.63;;;25.10;64.50;;;;;;4152433;28;20049;-54
2023/04/28 09:26:52;;;;;;;4.20;2.30;;;25.10;64.40;;;;;;4163352;28;20389;-54
2023/04/28 09:29:14;;;;;;;3.80;2.22;;;25.00;64.40;;;;;;4163952;28;20327;-54
2023/04/28 09:31:39;;;;;;;3.67;2.10;;;25.00;64.40;;;;;;4165411;28;20056;-52
2023/04/28 09:34:02;;;;;;;3.92;2.00;;;25.00;64.40;;;;;;4167313;28;20170;-51
2023/04/28 09:36:29;;;;;;;3.17;1.88;;;25.00;64.40;;;;;;4164989;28;20070;-53
2023/04/28 09:38:52;;;;;;;3.03;1.88;;;25.00;64.50;;;;;;4154716;28;20038;-52
2023/04/28 09:41:15;;;;;;;5.07;2.20;;;25.00;64.50;;;;;;4167120;28;20368;-53
2023/04/28 09:43:37;;;;;;;3.85;2.10;;;25.00;64.50;;;;;;4167507;28;20040;-50
2023/04/28 09:46:04;;;;;;;2.88;1.60;;;25.00;64.70;;;;;;4171523;28;20041;-53
2023/04/28 09:48:32;;;;;;;4.60;1.95;;;25.00;64.60;;;;;;4164927;28;20032;-53
2023/04/28 09:50:55;;;;;;;3.72;1.92;;;25.00;64.60;;;;;;4166482;28;20041;-48
2023/04/28 09:53:20;;;;;;;3.10;1.80;;;25.00;64.70;;;;;;4166877;28;20063;-49
2023/04/28 09:55:45;;;;;;;4.07;1.92;;;24.90;64.60;;;;;;4162101;28;20479;-50
2023/04/28 09:58:08;;;;;;;2.80;1.73;;;25.00;64.70;;;;;;4147995;28;20034;-52
2023/04/28 10:00:33;;;;;;;3.45;1.75;;;25.00;64.80;;;;;;4164389;28;20570;-54
2023/04/28 10:02:55;;;;;;;2.90;1.98;;;24.90;64.80;;;;;;4162684;28;20508;-54
2023/04/28 10:05:20;;;;;;;2.60;1.73;;;24.90;64.70;;;;;;4163422;28;20594;-51
2023/04/28 10:07:42;;;;;;;3.45;2.00;;;24.90;64.80;;;;;;4167069;28;20457;-54
2023/04/28 10:10:06;;;;;;;4.03;2.00;;;24.90;64.90;;;;;;4166996;28;20044;-49
2023/04/28 10:12:28;;;;;;;3.65;2.08;;;24.90;64.90;;;;;;4152613;28;20045;-52
2023/04/28 10:14:53;;;;;;;1.95;1.45;;;24.90;65.00;;;;;;4165741;28;20036;-54
2023/04/28 10:17:17;;;;;;;2.78;1.48;;;24.90;65.00;;;;;;4165821;28;20396;-51
2023/04/28 10:19:41;;;;;;;3.38;1.85;;;24.90;65.70;;;;;;4163709;28;20120;-55
2023/04/28 10:22:09;;;;;;;3.33;1.55;;;24.90;65.10;;;;;;4162750;28;20037;-53
2023/04/28 10:24:43;;;;;;;2.78;1.52;;;24.90;65.10;;;;;;4166455;28;20460;-53
2023/04/28 10:27:09;;;;;;;2.95;1.40;;;24.90;65.10;;;;;;4166369;28;20362;-52
2023/04/28 10:29:32;;;;;;;1.95;1.20;;;24.80;65.10;;;;;;4150561;28;20600;-48
2023/04/28 10:32:20;;;;;;;2.25;1.40;;;24.80;65.10;;;;;;4168046;28;20045;-55
2023/04/28 10:34:43;;;;;;;2.45;1.40;;;24.80;65.20;;;;;;4168618;28;20041;-48
2023/04/28 10:37:05;;;;;;;3.03;1.50;;;24.80;65.20;;;;;;4162328;28;20056;-54
2023/04/28 10:39:28;;;;;;;2.45;1.50;;;24.80;65.20;;;;;;4161075;28;20041;-53
2023/04/28 10:41:50;;;;;;;2.97;1.50;;;24.80;65.30;;;;;;4169310;28;20087;-51
2023/04/28 10:44:28;;;;;;;2.15;1.30;;;24.80;65.40;;;;;;4164681;28;20335;-50
2023/04/28 10:47:03;;;;;;;2.85;1.65;;;24.80;65.40;;;;;;4165535;28;20284;-51
2023/04/28 10:49:57;;;;;;;2.90;1.50;;;24.80;65.50;;;;;;4157997;28;20034;-50
2023/04/28 10:52:38;;;;;;;2.30;1.30;;;24.80;65.50;;;;;;4162355;28;20033;-50
2023/04/28 10:55:27;;;;;;;3.35;1.77;;;24.70;65.40;;;;;;4164615;28;20302;-53
2023/04/28 10:58:15;;;;;;;2.40;1.40;;;24.70;65.50;;;;;;4167831;28;20041;-48
2023/04/28 11:00:38;;;;;;;4.75;1.77;;;24.70;65.50;;;;;;4166055;28;20040;-51
2023/04/28 11:03:01;;;;;;;2.70;1.60;;;24.70;65.60;;;;;;4160981;28;20052;-54
2023/04/28 11:05:27;;;;;;;2.50;1.40;;;24.70;65.60;;;;;;4165654;28;20037;-54
2023/04/28 11:08:26;;;;;;;3.05;1.50;;;24.70;65.60;;;;;;4165211;28;20744;-51
2023/04/28 11:11:09;;;;;;;2.22;1.33;;;24.70;65.60;;;;;;4174678;28;20566;-55
2023/04/28 11:13:33;;;;;;;2.78;1.40;;;24.70;65.60;;;;;;4157521;28;20041;-55
2023/04/28 11:16:05;;;;;;;2.03;1.60;;;24.70;65.60;;;;;;4158071;28;20084;-52
2023/04/28 11:18:28;;;;;;;2.15;1.40;;;24.70;65.60;;;;;;4154080;28;20120;-52
2023/04/28 11:20:56;;;;;;;2.08;1.52;;;24.70;65.60;;;;;;4175315;28;20386;-54
2023/04/28 11:23:19;;;;;;;2.45;1.63;;;24.70;65.60;;;;;;4170588;28;20408;-52
2023/04/28 11:25:57;;;;;;;2.00;1.40;;;24.70;65.70;;;;;;4171354;28;20041;-53
2023/04/28 11:28:21;;;;;;;1.98;1.35;;;24.70;65.60;;;;;;4169087;28;20060;-54
2023/04/28 11:30:44;;;;;;;2.22;1.40;;;24.70;65.60;;;;;;4175584;28;20049;-54
2023/04/28 11:33:07;;;;;;;3.05;1.70;;;24.60;65.60;;;;;;4162831;28;20128;-52
2023/04/28 11:35:41;;;;;;;2.65;1.50;;;24.60;65.60;;;;;;4160681;28;20041;-52
2023/04/28 11:38:03;;;;;;;2.17;1.50;;;24.60;65.60;;;;;;4172032;28;20037;-51
2023/04/28 11:40:26;;;;;;;2.78;1.73;;;24.60;65.60;;;;;;4172077;28;20415;-52
2023/04/28 11:42:48;;;;;;;2.38;1.40;;;24.60;65.70;;;;;;4172838;28;20044;-55
2023/04/28 11:45:12;;;;;;;4.05;1.50;;;24.60;65.70;;;;;;4172662;28;20051;-54
2023/04/28 11:47:35;;;;;;;2.95;1.55;;;24.60;65.70;;;;;;4167428;28;20543;-52
2023/04/28 11:49:58;;;;;;;4.15;1.60;;;24.60;65.70;;;;;;4173532;28;20123;-52
2023/04/28 11:52:20;;;;;;;3.42;1.60;;;24.60;65.70;;;;;;4166840;28;20036;-53
2023/04/28 11:54:43;;;;;;;2.42;1.48;;;24.60;65.70;;;;;;4159201;28;20045;-51
2023/04/28 11:57:06;;;;;;;3.17;1.60;;;24.60;65.70;;;;;;4171284;28;20040;-49
2023/04/28 11:59:30;;;;;;;2.83;1.43;;;24.60;65.70;;;;;;4172130;28;20036;-49
2023/04/28 12:01:54;;;;;;;2.47;1.42;;;24.60;65.70;;;;;;4160018;28;20042;-52
2023/04/28 12:04:35;;;;;;;3.00;1.63;;;24.50;65.70;;;;;;4173521;28;20496;-51
2023/04/28 12:07:03;;;;;;;3.20;1.63;;;24.50;65.70;;;;;;4163153;28;20036;-46
2023/04/28 12:09:26;;;;;;;2.60;1.50;;;24.50;65.80;;;;;;4174957;28;20068;-49
2023/04/28 12:12:03;;;;;;;1.92;1.23;;;24.50;65.80;;;;;;4170611;28;20037;-48
2023/04/28 12:14:26;;;;;;;1.95;1.25;;;24.50;65.80;;;;;;4166876;28;20036;-50
2023/04/28 12:16:49;;;;;;;2.83;1.70;;;24.50;65.80;;;;;;4168352;28;20084;-47
2023/04/28 12:19:14;;;;;;;2.40;1.30;;;24.50;65.80;;;;;;4148958;28;20045;-53
2023/04/28 12:21:39;;;;;;;2.70;1.30;;;24.50;65.90;;;;;;4158266;28;20041;-49
2023/04/28 12:24:12;;;;;;;2.10;1.40;;;24.40;65.80;;;;;;4168737;28;20067;-48
2023/04/28 12:26:34;;;;;;;2.83;1.80;;;24.40;65.80;;;;;;4173888;28;20104;-49
2023/04/28 12:28:57;;;;;;;2.80;1.38;;;24.40;65.90;;;;;;4164998;28;20720;-49
2023/04/28 12:31:19;;;;;;;2.03;1.27;;;24.40;66.00;;;;;;4174266;28;20049;-51